Terminal Aerodrome Forecast
Issued by NWS Knoxville/Tri Cities, TN

Home | Current Version | Previous Version | Text Only | Print | Product List | Glossary On
Versions: 1 2 3 4 5 6 7 8 9 10 11 12 13 14 15 16 17 18 19 20 21 22 23 24 25 26 27 28 29 30 31 32 33 34 35 36 37 38
000
FTUS44 KMRX 040418 AAB
TAFTRI
TAF AMD
KTRI 040418Z 0404/0424 00000KT 1 1/2SM BR VCSH BKN002 OVC015
      TEMPO 0404/0406 3/4SM BR OVC002
     FM041000 VRB02KT 3SM BR VCSH SCT005 OVC015
     FM041300 22003KT 6SM BR SCT015 OVC025
     FM041400 24010G20KT P6SM SCT050 BKN090
     FM042100 24010KT 5SM -SHRA BR OVC040=

USA.gov is the U.S. government's official web portal to all federal, state and local government web resources and services.